Terminal Aerodrome Forecast
Issued by NWS Paducah, KY

Home | Current Version | Previous Version | Graphics & Text | Print | Product List | Glossary On
Versions: 1 2 3 4 5 6 7 8 9 10 11 12 13 14
000
FTUS43 KPAH 241958 AAB
TAFPAH
TAF AMD
KPAH 241958Z 2420/2518 13010KT P6SM OVC070
      TEMPO 2420/2423 -SHRA BKN040
     FM250000 15007KT P6SM BKN040
     FM250700 16010KT P6SM OVC015 PROB30 2507/2511 3SM -TSRA
      BKN007CB=

USA.gov is the U.S. government's official web portal to all federal, state and local government web resources and services.